ADDS METAR Data INFO
IDs: Format: Raw Decoded Include TAF

Data at: 1133 UTC 29 May 2017

KPSX 291053Z AUTO 11007KT 9SM RA FEW023 SCT100 BKN120 21/20 A2993 RMK AO2 LTG DSNT ALQDS RAB11 SLP135 P0005 T02110200
KPSX 291040Z AUTO 11008KT 10SM RA SCT110 21/20 A2992 RMK AO2 LTG DSNT SW-NW RAB11 P0002 T02060200
KPSX 290953Z AUTO 06004KT 10SM CLR 21/21 A2983 RMK AO2 SLP102 T02060206
KPSX 290853Z AUTO 10007KT 10SM CLR 21/20 A2989 RMK AO2 SLP121 60002 T02060200 58014
KPSX 290840Z AUTO 09007KT 10SM CLR 21/20 A2991 RMK AO2 T02060200
KPSX 290825Z AUTO 07011KT 10SM VCTS FEW026 20/20 A2991 RMK AO2 T02000200
KPSX 290815Z AUTO 07011KT 10SM FEW026 20/20 A2992 RMK AO2 LTG DSNT W T02000200
KPSX 290753Z AUTO 05015G19KT 10SM OVC025 21/20 A2993 RMK AO2 LTG DSNT E AND SW RAB12E48 SLP135 P0002 T02060200
KPSX 290714Z AUTO 03015KT 9SM -RA SCT012 BKN017 OVC050 22/20 A2994 RMK AO2 LTG DSNT N RAB12 P0000 T02220200
KPSX 290700Z AUTO 01015G21KT 9SM FEW008 BKN013 OVC050 22/21 A2993 RMK AO2 LTG DSNT W-NE T02220206
KPSX 290653Z AUTO 36016G21KT 7SM FEW008 BKN030 OVC050 24/24 A2993 RMK AO2 LTG DSNT W-NE SLP135 T02440239
KPSX 290651Z AUTO 01010KT 6SM BR FEW008 BKN030 OVC050 25/24 A2993 RMK AO2 LTG DSNT W-NE
KPSX 290625Z AUTO 02005KT 7SM FEW015 SCT027 OVC034 25/24 A2995 RMK AO2 LTG DSNT W-NE T02500244
KPSX 290611Z AUTO 04004KT 7SM FEW015 BKN027 OVC032 25/25 A2995 RMK AO2 LTG DSNT W-NE T02500250
KPSX 290553Z AUTO 06005KT 7SM FEW015 SCT020 OVC030 26/25 A2997 RMK AO2 LTG DSNT NW-NE SLP147 T02560250 10272 20250 403060250 50001
KPSX 290511Z AUTO 10007KT 8SM FEW015 SCT021 BKN085 26/25 A3000 RMK AO2 LTG DSNT NW T02560250
KPSX 290453Z AUTO 11007KT 7SM SCT014 BKN019 BKN028 26/25 A3000 RMK AO2 SLP159 T02560250
KPSX 290419Z AUTO 06006KT 8SM FEW012 BKN028 OVC085 26/24 A2999 RMK AO2 LTG DSNT NE T02560244
KPSX 290353Z AUTO 06007KT 8SM FEW018 BKN031 OVC042 26/24 A2997 RMK AO2 SLP147 T02560244
KPSX 290349Z AUTO 05008KT 8SM FEW013 BKN032 OVC040 26/24 A2997 RMK AO2
KPSX 290329Z AUTO 03006KT 8SM SCT010 OVC016 26/24 A2997 RMK AO2 T02560244
KPSX 290304Z AUTO 01003KT 8SM BKN009 OVC013 26/25 A2995 RMK AO2 T02560250
KPSX 290253Z AUTO 36003KT 7SM OVC013 26/25 A2994 RMK AO2 PRESRR SLP137 T02560250 53033
KPSX 290243Z AUTO 02005KT 7SM OVC014 26/24 A2992 RMK AO2 T02560244
KPSX 290223Z AUTO 05003KT 8SM SCT010 OVC015 26/24 A2990 RMK AO2 PRESRR T02560244
KPSX 290202Z AUTO 09004KT 8SM BKN010 OVC016 26/24 A2987 RMK AO2 T02560244
KPSX 290153Z AUTO 09004KT 8SM SCT010 OVC017 26/24 A2987 RMK AO2 SLP113 T02560244
KPSX 290133Z AUTO 14007KT 8SM FEW010 BKN016 26/24 A2985 RMK AO2 T02560244
KPSX 290053Z AUTO 15008KT 7SM CLR 26/24 A2983 RMK AO2 SLP100 T02610244
KPSX 282353Z AUTO 15013KT 9SM CLR 27/24 A2984 RMK AO2 SLP104 60001 T02720244 10306 20272 55020
KPSX 282253Z AUTO 14016KT 9SM FEW012 28/24 A2984 RMK AO2 SLP104 T02830244
KPSX 282210Z AUTO 14018KT 10SM FEW013 SCT018 29/24 A2986 RMK AO2 T02890244
KPSX 282153Z AUTO 15015KT 10SM BKN015 29/25 A2987 RMK AO2 SLP115 T02890250
KPSX 282140Z AUTO 14014KT 10SM BKN015 29/24 A2988 RMK AO2 T02890244
KPSX 282132Z AUTO 14016KT 10SM BKN014 BKN023 29/24 A2989 RMK AO2 T02890244
KPSX 282053Z AUTO 13014KT 10SM CLR 29/24 A2990 RMK AO2 SLP124 60001 T02940244 56019
KPSX 281953Z AUTO 15017KT 10SM FEW018 30/25 A2991 RMK AO2 SLP128 T03000250
KPSX 281853Z AUTO 14016KT 10SM SCT023 SCT028 BKN034 30/25 A2993 RMK AO2 RAE25 SLP133 P0001 T03000250
KPSX 281753Z AUTO 12009KT 7SM RA SCT025 SCT033 BKN040 27/25 A2996 RMK AO2 RAB49 SLP143 P0000 60000 T02720250 10294 20261 53012
KPSX 281742Z AUTO 12010KT 10SM FEW017 BKN046 BKN055 29/24 A2995 RMK AO2 T02890244
KPSX 281704Z AUTO 16005KT 9SM SCT017 BKN025 OVC040 28/24 A2995 RMK AO2 T02780244
KPSX 281653Z AUTO 15007KT 9SM FEW019 SCT026 OVC041 28/24 A2994 RMK AO2 SLP140 T02830244
KPSX 281553Z AUTO 15010KT 9SM SCT036 28/24 A2992 RMK AO2 SLP133 T02830244
KPSX 281453Z AUTO 17008KT 8SM FEW012 BKN033 OVC039 27/25 A2992 RMK AO2 SLP131 T02720250 53026
KPSX 281444Z AUTO 18007KT 8SM FEW012 SCT019 OVC031 27/25 A2992 RMK AO2 T02720250
KPSX 281353Z AUTO 18008KT 7SM FEW013 OVC027 27/25 A2989 RMK AO2 SLP122 T02670250
KPSX 281253Z AUTO 19010KT 7SM OVC028 27/24 A2987 RMK AO2 SLP113 T02670244
KPSX 281153Z AUTO 18010KT 7SM OVC021 26/24 A2984 RMK AO2 SLP106 T02610244 10267 20261 53008
KPSX 281053Z AUTO 18013G20KT 9SM OVC017 26/24 A2980 RMK AO2 SLP092 T02610244
KPSX 281027Z AUTO 18012KT 9SM OVC016 26/24 A2980 RMK AO2 T02610244
KPSX 280953Z AUTO 18011KT 9SM OVC012 26/24 A2981 RMK AO2 SLP093 T02610244
KPSX 280924Z AUTO 19011KT 8SM OVC014 26/25 A2981 RMK AO2 T02610250
KPSX 280853Z AUTO 19013KT 9SM OVC016 26/24 A2982 RMK AO2 SLP097 T02610244 58021
KPSX 280753Z AUTO 19013G20KT 10SM OVC016 26/24 A2985 RMK AO2 SLP106 T02610244
KPSX 280709Z AUTO 19012KT 9SM FEW010 OVC018 26/25 A2986 RMK AO2 T02610250
KPSX 280653Z AUTO 19010KT 9SM BKN012 OVC017 26/25 A2987 RMK AO2 SLP114 T02610250
KPSX 280601Z AUTO 18009KT 9SM OVC013 26/24 A2988 RMK AO2 T02610244
KPSX 280553Z AUTO 18010G19KT 10SM OVC015 27/24 A2988 RMK AO2 SLP118 T02670244 10272 20261 402940256 53001
KPSX 280506Z AUTO 16011G20KT 9SM OVC015 26/24 A2988 RMK AO2 T02610244
KPSX 280453Z AUTO 16016G20KT 9SM OVC014 26/24 A2988 RMK AO2 SLP116 T02610244
KPSX 280446Z AUTO 16013KT 9SM OVC016 26/25 A2988 RMK AO2 T02610250
KPSX 280353Z AUTO 14011G19KT 9SM OVC012 26/25 A2988 RMK AO2 SLP118 T02610250
KPSX 280253Z AUTO 14011KT 9SM OVC012 26/25 A2988 RMK AO2 SLP117 T02610250 53006
KPSX 280153Z AUTO 13009KT 10SM OVC012 26/24 A2987 RMK AO2 SLP114 T02610244
KPSX 280053Z AUTO 13011KT 10SM OVC013 27/24 A2986 RMK AO2 SLP111 T02670244
KPSX 272353Z AUTO 14011KT 10SM BKN014 BKN019 27/24 A2986 RMK AO2 SLP111 T02670244 10294 20267 56006
KPSX 272348Z AUTO 13013KT 10SM BKN014 BKN019 27/24 A2986 RMK AO2


Page loaded:  11:33 UTC  |   04:33 AM Pacific  |   05:33 AM Mountain  |   06:33 AM Central  |   07:33 AM Eastern

 

ADVISORIES

FORECASTS

FORECASTS

OBSERVATIONS

USER TOOLS

ABOUT US